sensor_id;sensor_type;location;lat;lon;timestamp;pressure;altitude;pressure_sealevel;temperature;humidity
8069;BME280;4077;43.702;24.896;2023-03-16T00:00:23;98566.44;;;7.64;100.00
8069;BME280;4077;43.702;24.896;2023-03-16T00:02:49;98559.47;;;7.51;100.00
8069;BME280;4077;43.702;24.896;2023-03-16T00:05:14;98571.47;;;7.49;100.00
8069;BME280;4077;43.702;24.896;2023-03-16T00:07:40;98563.69;;;7.43;100.00
8069;BME280;4077;43.702;24.896;2023-03-16T00:10:07;98568.84;;;7.46;100.00
8069;BME280;4077;43.702;24.896;2023-03-16T00:12:33;98561.03;;;7.32;100.00
8069;BME280;4077;43.702;24.896;2023-03-16T00:14:59;98562.91;;;7.49;100.00
8069;BME280;4077;43.702;24.896;2023-03-16T00:17:25;98549.22;;;7.51;100.00
8069;BME280;4077;43.702;24.896;2023-03-16T00:19:55;98553.38;;;7.38;100.00
8069;BME280;4077;43.702;24.896;2023-03-16T00:24:47;98539.53;;;7.21;100.00
8069;BME280;4077;43.702;24.896;2023-03-16T00:27:14;98546.53;;;7.36;100.00
8069;BME280;4077;43.702;24.896;2023-03-16T00:29:44;98561.06;;;7.38;100.00
8069;BME280;4077;43.702;24.896;2023-03-16T00:32:13;98567.88;;;7.32;100.00
8069;BME280;4077;43.702;24.896;2023-03-16T00:34:40;98561.81;;;7.25;100.00
8069;BME280;4077;43.702;24.896;2023-03-16T00:37:06;98560.22;;;7.35;100.00
8069;BME280;4077;43.702;24.896;2023-03-16T00:39:31;98563.56;;;7.31;100.00
8069;BME280;4077;43.702;24.896;2023-03-16T00:42:00;98565.16;;;7.20;100.00
8069;BME280;4077;43.702;24.896;2023-03-16T00:44:26;98582.34;;;7.24;100.00
8069;BME280;4077;43.702;24.896;2023-03-16T00:46:52;98581.53;;;7.28;100.00
8069;BME280;4077;43.702;24.896;2023-03-16T00:49:17;98581.50;;;7.26;100.00
8069;BME280;4077;43.702;24.896;2023-03-16T00:51:43;98582.41;;;7.33;100.00
8069;BME280;4077;43.702;24.896;2023-03-16T00:54:10;98579.75;;;7.21;100.00
8069;BME280;4077;43.702;24.896;2023-03-16T00:56:36;98603.84;;;7.35;100.00
8069;BME280;4077;43.702;24.896;2023-03-16T00:59:11;98613.28;;;7.40;100.00
8069;BME280;4077;43.702;24.896;2023-03-16T01:01:37;98607.19;;;7.28;100.00
8069;BME280;4077;43.702;24.896;2023-03-16T01:04:03;98613.19;;;7.28;100.00
8069;BME280;4077;43.702;24.896;2023-03-16T01:06:28;98624.41;;;7.41;100.00
8069;BME280;4077;43.702;24.896;2023-03-16T01:08:54;98620.97;;;7.39;100.00
8069;BME280;4077;43.702;24.896;2023-03-16T01:11:21;98621.97;;;7.52;100.00
8069;BME280;4077;43.702;24.896;2023-03-16T01:13:48;98629.72;;;7.56;100.00
8069;BME280;4077;43.702;24.896;2023-03-16T01:16:17;98631.38;;;7.54;100.00
8069;BME280;4077;43.702;24.896;2023-03-16T01:18:43;98627.09;;;7.50;100.00
8069;BME280;4077;43.702;24.896;2023-03-16T01:21:09;98634.00;;;7.59;100.00
8069;BME280;4077;43.702;24.896;2023-03-16T01:23:38;98647.78;;;7.64;100.00
8069;BME280;4077;43.702;24.896;2023-03-16T01:26:05;98655.47;;;7.65;100.00
8069;BME280;4077;43.702;24.896;2023-03-16T01:28:32;98656.28;;;7.58;100.00
8069;BME280;4077;43.702;24.896;2023-03-16T01:31:04;98652.97;;;7.70;100.00
8069;BME280;4077;43.702;24.896;2023-03-16T01:33:31;98649.56;;;7.73;100.00
8069;BME280;4077;43.702;24.896;2023-03-16T01:36:00;98653.69;;;7.55;100.00
8069;BME280;4077;43.702;24.896;2023-03-16T01:38:26;98645.06;;;7.52;100.00
8069;BME280;4077;43.702;24.896;2023-03-16T01:40:58;98626.13;;;7.39;100.00
8069;BME280;4077;43.702;24.896;2023-03-16T01:43:25;98645.06;;;7.52;100.00
8069;BME280;4077;43.702;24.896;2023-03-16T01:46:19;98645.81;;;7.40;100.00
8069;BME280;4077;43.702;24.896;2023-03-16T01:51:23;98653.41;;;7.31;100.00
8069;BME280;4077;43.702;24.896;2023-03-16T01:53:53;98655.03;;;7.23;100.00
8069;BME280;4077;43.702;24.896;2023-03-16T01:56:26;98656.75;;;7.21;100.00
8069;BME280;4077;43.702;24.896;2023-03-16T01:58:55;98659.41;;;7.30;100.00
8069;BME280;4077;43.702;24.896;2023-03-16T02:01:25;98663.75;;;7.38;100.00
8069;BME280;4077;43.702;24.896;2023-03-16T02:03:55;98666.34;;;7.38;100.00
8069;BME280;4077;43.702;24.896;2023-03-16T02:06:21;98662.09;;;7.42;100.00
8069;BME280;4077;43.702;24.896;2023-03-16T02:08:48;98672.47;;;7.54;100.00
8069;BME280;4077;43.702;24.896;2023-03-16T02:11:15;98665.63;;;7.53;100.00
8069;BME280;4077;43.702;24.896;2023-03-16T02:13:44;98667.25;;;7.45;100.00
8069;BME280;4077;43.702;24.896;2023-03-16T02:16:11;98680.16;;;7.48;100.00
8069;BME280;4077;43.702;24.896;2023-03-16T02:18:46;98684.31;;;7.38;100.00
8069;BME280;4077;43.702;24.896;2023-03-16T02:23:45;98675.75;;;7.38;100.00
8069;BME280;4077;43.702;24.896;2023-03-16T02:26:24;98675.81;;;7.44;100.00
8069;BME280;4077;43.702;24.896;2023-03-16T02:29:09;98685.22;;;7.45;100.00
8069;BME280;4077;43.702;24.896;2023-03-16T02:31:38;98669.44;;;7.08;100.00
8069;BME280;4077;43.702;24.896;2023-03-16T02:34:05;98671.97;;;7.07;100.00
8069;BME280;4077;43.702;24.896;2023-03-16T02:36:32;98675.19;;;6.92;100.00
8069;BME280;4077;43.702;24.896;2023-03-16T02:38:58;98673.34;;;6.82;100.00
8069;BME280;4077;43.702;24.896;2023-03-16T02:41:24;98665.78;;;6.91;100.00
8069;BME280;4077;43.702;24.896;2023-03-16T02:43:54;98668.41;;;6.97;100.00
8069;BME280;4077;43.702;24.896;2023-03-16T02:46:24;98663.13;;;6.83;100.00
8069;BME280;4077;43.702;24.896;2023-03-16T02:49:19;98683.03;;;7.01;100.00
8069;BME280;4077;43.702;24.896;2023-03-16T02:51:46;98681.94;;;6.84;100.00
8069;BME280;4077;43.702;24.896;2023-03-16T02:54:12;98692.06;;;6.75;100.00
8069;BME280;4077;43.702;24.896;2023-03-16T02:56:38;98703.31;;;6.86;100.00
8069;BME280;4077;43.702;24.896;2023-03-16T02:59:04;98696.34;;;6.73;100.00
8069;BME280;4077;43.702;24.896;2023-03-16T03:01:29;98720.50;;;6.90;100.00
8069;BME280;4077;43.702;24.896;2023-03-16T03:03:56;98722.97;;;6.85;100.00
8069;BME280;4077;43.702;24.896;2023-03-16T03:06:22;98723.06;;;6.92;100.00
8069;BME280;4077;43.702;24.896;2023-03-16T03:08:48;98728.16;;;6.87;100.00
8069;BME280;4077;43.702;24.896;2023-03-16T03:11:14;98724.69;;;6.85;100.00
8069;BME280;4077;43.702;24.896;2023-03-16T03:13:39;98726.41;;;6.86;100.00
8069;BME280;4077;43.702;24.896;2023-03-16T03:16:07;98723.06;;;6.90;100.00
8069;BME280;4077;43.702;24.896;2023-03-16T03:18:33;98710.97;;;6.80;100.00
8069;BME280;4077;43.702;24.896;2023-03-16T03:20:58;98705.75;;;6.74;100.00
8069;BME280;4077;43.702;24.896;2023-03-16T03:23:24;98723.88;;;6.88;100.00
8069;BME280;4077;43.702;24.896;2023-03-16T03:25:49;98721.44;;;6.98;100.00
8069;BME280;4077;43.702;24.896;2023-03-16T03:28:15;98724.06;;;7.01;100.00
8069;BME280;4077;43.702;24.896;2023-03-16T03:30:40;98730.94;;;7.05;100.00
8069;BME280;4077;43.702;24.896;2023-03-16T03:33:06;98723.22;;;7.02;100.00
8069;BME280;4077;43.702;24.896;2023-03-16T03:35:31;98728.28;;;6.98;100.00
8069;BME280;4077;43.702;24.896;2023-03-16T03:37:57;98724.78;;;6.91;100.00
8069;BME280;4077;43.702;24.896;2023-03-16T03:40:22;98743.69;;;6.98;100.00
8069;BME280;4077;43.702;24.896;2023-03-16T03:42:48;98743.75;;;7.02;100.00
8069;BME280;4077;43.702;24.896;2023-03-16T03:45:14;98733.31;;;6.90;100.00
8069;BME280;4077;43.702;24.896;2023-03-16T03:47:40;98734.94;;;6.83;100.00
8069;BME280;4077;43.702;24.896;2023-03-16T03:50:07;98753.75;;;6.84;100.00
8069;BME280;4077;43.702;24.896;2023-03-16T03:52:33;98751.81;;;6.68;100.00
8069;BME280;4077;43.702;24.896;2023-03-16T03:54:59;98756.06;;;6.67;100.00
8069;BME280;4077;43.702;24.896;2023-03-16T03:57:24;98757.69;;;6.62;100.00
8069;BME280;4077;43.702;24.896;2023-03-16T03:59:50;98771.38;;;6.61;100.00
8069;BME280;4077;43.702;24.896;2023-03-16T04:02:15;98776.50;;;6.63;100.00
8069;BME280;4077;43.702;24.896;2023-03-16T04:04:42;98784.19;;;6.63;100.00
8069;BME280;4077;43.702;24.896;2023-03-16T04:07:08;98770.28;;;6.45;100.00
8069;BME280;4077;43.702;24.896;2023-03-16T04:09:33;98766.56;;;6.28;100.00
8069;BME280;4077;43.702;24.896;2023-03-16T04:12:00;98780.97;;;6.23;100.00
8069;BME280;4077;43.702;24.896;2023-03-16T04:14:26;98786.59;;;6.03;100.00
8069;BME280;4077;43.702;24.896;2023-03-16T04:16:52;98781.41;;;5.97;100.00
8069;BME280;4077;43.702;24.896;2023-03-16T04:19:19;98789.25;;;6.08;100.00
8069;BME280;4077;43.702;24.896;2023-03-16T04:21:45;98791.56;;;5.94;100.00
8069;BME280;4077;43.702;24.896;2023-03-16T04:24:11;98804.53;;;6.02;100.00
8069;BME280;4077;43.702;24.896;2023-03-16T04:26:39;98808.84;;;6.05;100.00
8069;BME280;4077;43.702;24.896;2023-03-16T04:29:05;98813.00;;;5.98;100.00
8069;BME280;4077;43.702;24.896;2023-03-16T04:31:30;98793.97;;;5.87;100.00
8069;BME280;4077;43.702;24.896;2023-03-16T04:33:56;98833.38;;;5.92;100.00
8069;BME280;4077;43.702;24.896;2023-03-16T04:36:21;98837.69;;;5.96;100.00
8069;BME280;4077;43.702;24.896;2023-03-16T04:38:50;98830.63;;;5.84;100.00
8069;BME280;4077;43.702;24.896;2023-03-16T04:41:16;98839.06;;;5.80;100.00
8069;BME280;4077;43.702;24.896;2023-03-16T04:43:42;98843.09;;;5.69;100.00
8069;BME280;4077;43.702;24.896;2023-03-16T04:46:08;98840.34;;;5.58;100.00
8069;BME280;4077;43.702;24.896;2023-03-16T04:48:34;98844.34;;;5.45;100.00
8069;BME280;4077;43.702;24.896;2023-03-16T04:51:00;98854.63;;;5.48;100.00
8069;BME280;4077;43.702;24.896;2023-03-16T04:53:28;98845.19;;;5.44;100.00
8069;BME280;4077;43.702;24.896;2023-03-16T04:55:54;98863.75;;;5.36;100.00
8069;BME280;4077;43.702;24.896;2023-03-16T04:58:19;98861.69;;;5.21;100.00
8069;BME280;4077;43.702;24.896;2023-03-16T05:00:45;98851.91;;;5.02;100.00
8069;BME280;4077;43.702;24.896;2023-03-16T05:03:10;98865.63;;;5.05;100.00
8069;BME280;4077;43.702;24.896;2023-03-16T05:05:37;98861.16;;;4.97;100.00
8069;BME280;4077;43.702;24.896;2023-03-16T05:08:04;98860.84;;;4.84;100.00
8069;BME280;4077;43.702;24.896;2023-03-16T05:10:31;98863.25;;;4.78;100.00
8069;BME280;4077;43.702;24.896;2023-03-16T05:12:58;98858.94;;;4.74;100.00
8069;BME280;4077;43.702;24.896;2023-03-16T05:15:23;98870.84;;;4.74;100.00
8069;BME280;4077;43.702;24.896;2023-03-16T05:17:49;98875.47;;;4.54;100.00
8069;BME280;4077;43.702;24.896;2023-03-16T05:20:16;98885.00;;;4.61;100.00
8069;BME280;4077;43.702;24.896;2023-03-16T05:22:43;98874.69;;;4.58;100.00
8069;BME280;4077;43.702;24.896;2023-03-16T05:25:10;98876.78;;;4.39;100.00
8069;BME280;4077;43.702;24.896;2023-03-16T05:27:52;98883.19;;;4.57;100.00
8069;BME280;4077;43.702;24.896;2023-03-16T05:30:18;98872.13;;;4.58;100.00
8069;BME280;4077;43.702;24.896;2023-03-16T05:32:44;98891.06;;;4.66;100.00
8069;BME280;4077;43.702;24.896;2023-03-16T05:35:10;98882.28;;;4.55;100.00
8069;BME280;4077;43.702;24.896;2023-03-16T05:37:40;98878.75;;;4.50;100.00
8069;BME280;4077;43.702;24.896;2023-03-16T05:40:09;98906.34;;;4.63;100.00
8069;BME280;4077;43.702;24.896;2023-03-16T05:42:52;98916.50;;;4.60;100.00
8069;BME280;4077;43.702;24.896;2023-03-16T05:45:18;98915.16;;;4.41;100.00
8069;BME280;4077;43.702;24.896;2023-03-16T05:47:43;98917.75;;;4.43;100.00
8069;BME280;4077;43.702;24.896;2023-03-16T05:50:10;98915.72;;;4.62;100.00
8069;BME280;4077;43.702;24.896;2023-03-16T05:52:37;98927.47;;;4.56;100.00
8069;BME280;4077;43.702;24.896;2023-03-16T05:55:07;98925.50;;;4.80;100.00
8069;BME280;4077;43.702;24.896;2023-03-16T05:57:34;98935.13;;;4.89;100.00
8069;BME280;4077;43.702;24.896;2023-03-16T06:00:00;98938.91;;;5.05;100.00
8069;BME280;4077;43.702;24.896;2023-03-16T06:02:27;98944.19;;;4.76;100.00
8069;BME280;4077;43.702;24.896;2023-03-16T06:04:53;98938.84;;;4.67;100.00
8069;BME280;4077;43.702;24.896;2023-03-16T06:07:18;98954.09;;;4.64;100.00
8069;BME280;4077;43.702;24.896;2023-03-16T06:09:43;98953.25;;;4.65;100.00
8069;BME280;4077;43.702;24.896;2023-03-16T06:12:09;98944.69;;;4.63;100.00
8069;BME280;4077;43.702;24.896;2023-03-16T06:14:35;98953.88;;;4.56;100.00
8069;BME280;4077;43.702;24.896;2023-03-16T06:17:00;98923.00;;;4.17;100.00
8069;BME280;4077;43.702;24.896;2023-03-16T06:19:26;98970.69;;;4.47;100.00
8069;BME280;4077;43.702;24.896;2023-03-16T06:21:51;98961.66;;;4.29;100.00
8069;BME280;4077;43.702;24.896;2023-03-16T06:24:17;98958.91;;;4.22;100.00
8069;BME280;4077;43.702;24.896;2023-03-16T06:26:43;98947.19;;;4.30;100.00
8069;BME280;4077;43.702;24.896;2023-03-16T06:29:08;98982.31;;;4.69;100.00
8069;BME280;4077;43.702;24.896;2023-03-16T06:31:34;98973.34;;;4.51;100.00
8069;BME280;4077;43.702;24.896;2023-03-16T06:34:00;98951.00;;;4.44;100.00
8069;BME280;4077;43.702;24.896;2023-03-16T06:36:26;98999.94;;;4.59;100.00
8069;BME280;4077;43.702;24.896;2023-03-16T06:38:51;98997.94;;;4.48;100.00
8069;BME280;4077;43.702;24.896;2023-03-16T06:41:17;99004.16;;;4.57;100.00
8069;BME280;4077;43.702;24.896;2023-03-16T06:43:42;99000.28;;;4.40;100.00
8069;BME280;4077;43.702;24.896;2023-03-16T06:46:08;99021.91;;;4.53;100.00
8069;BME280;4077;43.702;24.896;2023-03-16T06:48:33;99024.00;;;4.66;100.00
8069;BME280;4077;43.702;24.896;2023-03-16T06:50:59;99017.56;;;4.49;100.00
8069;BME280;4077;43.702;24.896;2023-03-16T06:53:25;99013.75;;;4.34;100.00
8069;BME280;4077;43.702;24.896;2023-03-16T06:55:51;99014.41;;;4.27;100.00
8069;BME280;4077;43.702;24.896;2023-03-16T06:58:16;99031.00;;;4.42;100.00
8069;BME280;4077;43.702;24.896;2023-03-16T07:00:42;99020.59;;;4.35;100.00
8069;BME280;4077;43.702;24.896;2023-03-16T07:03:07;99023.16;;;4.35;100.00
8069;BME280;4077;43.702;24.896;2023-03-16T07:05:33;99045.50;;;4.43;100.00
8069;BME280;4077;43.702;24.896;2023-03-16T07:07:59;99052.94;;;4.65;100.00
8069;BME280;4077;43.702;24.896;2023-03-16T07:10:25;99059.28;;;4.48;100.00
8069;BME280;4077;43.702;24.896;2023-03-16T07:12:51;99027.25;;;4.30;100.00
8069;BME280;4077;43.702;24.896;2023-03-16T07:15:16;99055.91;;;4.49;100.00
8069;BME280;4077;43.702;24.896;2023-03-16T07:17:43;99063.00;;;4.59;100.00
8069;BME280;4077;43.702;24.896;2023-03-16T07:20:09;99070.34;;;4.78;100.00
8069;BME280;4077;43.702;24.896;2023-03-16T07:22:36;99066.28;;;4.55;100.00
8069;BME280;4077;43.702;24.896;2023-03-16T07:25:02;99036.66;;;4.31;100.00
8069;BME280;4077;43.702;24.896;2023-03-16T07:27:28;99071.41;;;4.55;100.00
8069;BME280;4077;43.702;24.896;2023-03-16T07:29:54;99076.31;;;4.47;100.00
8069;BME280;4077;43.702;24.896;2023-03-16T07:32:20;99074.72;;;4.52;100.00
8069;BME280;4077;43.702;24.896;2023-03-16T07:34:46;99051.91;;;4.28;100.00
8069;BME280;4077;43.702;24.896;2023-03-16T07:37:12;99091.56;;;4.46;100.00
8069;BME280;4077;43.702;24.896;2023-03-16T07:39:38;99089.50;;;4.62;100.00
8069;BME280;4077;43.702;24.896;2023-03-16T07:42:03;99098.09;;;4.64;100.00
8069;BME280;4077;43.702;24.896;2023-03-16T07:44:29;99090.44;;;4.66;100.00
8069;BME280;4077;43.702;24.896;2023-03-16T07:46:55;99104.63;;;4.55;100.00
8069;BME280;4077;43.702;24.896;2023-03-16T07:49:21;99089.91;;;4.46;100.00
8069;BME280;4077;43.702;24.896;2023-03-16T07:51:47;99100.91;;;4.45;100.00
8069;BME280;4077;43.702;24.896;2023-03-16T07:54:13;99105.78;;;4.66;100.00
8069;BME280;4077;43.702;24.896;2023-03-16T07:56:38;99102.44;;;4.67;100.00
8069;BME280;4077;43.702;24.896;2023-03-16T07:59:04;99095.13;;;4.51;100.00
8069;BME280;4077;43.702;24.896;2023-03-16T08:01:29;99122.97;;;4.70;100.00
8069;BME280;4077;43.702;24.896;2023-03-16T08:03:55;99109.28;;;4.68;100.00
8069;BME280;4077;43.702;24.896;2023-03-16T08:06:21;99117.91;;;4.73;100.00
8069;BME280;4077;43.702;24.896;2023-03-16T08:08:47;99122.88;;;4.67;100.00
8069;BME280;4077;43.702;24.896;2023-03-16T08:11:12;99127.22;;;4.70;100.00
8069;BME280;4077;43.702;24.896;2023-03-16T08:13:38;99121.59;;;4.53;100.00
8069;BME280;4077;43.702;24.896;2023-03-16T08:16:05;99118.28;;;4.55;100.00
8069;BME280;4077;43.702;24.896;2023-03-16T08:18:34;99114.28;;;4.65;100.00
8069;BME280;4077;43.702;24.896;2023-03-16T08:21:01;99128.72;;;4.63;100.00
8069;BME280;4077;43.702;24.896;2023-03-16T08:23:26;99142.78;;;4.79;100.00
8069;BME280;4077;43.702;24.896;2023-03-16T08:25:54;99147.66;;;4.70;100.00
8069;BME280;4077;43.702;24.896;2023-03-16T08:28:20;99128.56;;;4.58;100.00
8069;BME280;4077;43.702;24.896;2023-03-16T08:30:48;99145.06;;;4.68;100.00
8069;BME280;4077;43.702;24.896;2023-03-16T08:33:15;99157.19;;;4.75;100.00
8069;BME280;4077;43.702;24.896;2023-03-16T08:35:43;99154.59;;;4.74;100.00
8069;BME280;4077;43.702;24.896;2023-03-16T08:38:10;99153.00;;;4.77;100.00
8069;BME280;4077;43.702;24.896;2023-03-16T08:40:36;99163.00;;;5.00;100.00
8069;BME280;4077;43.702;24.896;2023-03-16T08:43:02;99154.25;;;4.91;100.00
8069;BME280;4077;43.702;24.896;2023-03-16T08:45:28;99171.78;;;4.79;100.00
8069;BME280;4077;43.702;24.896;2023-03-16T08:47:54;99138.97;;;4.64;100.00
8069;BME280;4077;43.702;24.896;2023-03-16T08:50:20;99174.34;;;4.79;100.00
8069;BME280;4077;43.702;24.896;2023-03-16T08:52:47;99155.28;;;4.68;100.00
8069;BME280;4077;43.702;24.896;2023-03-16T08:55:13;99179.28;;;4.73;100.00
8069;BME280;4077;43.702;24.896;2023-03-16T08:57:39;99178.22;;;4.66;100.00
8069;BME280;4077;43.702;24.896;2023-03-16T09:00:06;99170.56;;;4.66;100.00
8069;BME280;4077;43.702;24.896;2023-03-16T09:02:42;99178.53;;;4.76;100.00
8069;BME280;4077;43.702;24.896;2023-03-16T09:05:09;99181.72;;;4.69;100.00
8069;BME280;4077;43.702;24.896;2023-03-16T09:07:36;99183.44;;;4.70;100.00
8069;BME280;4077;43.702;24.896;2023-03-16T09:10:03;99178.47;;;4.74;100.00
8069;BME280;4077;43.702;24.896;2023-03-16T09:12:30;99181.28;;;4.83;100.00
8069;BME280;4077;43.702;24.896;2023-03-16T09:14:56;99187.31;;;4.85;100.00
8069;BME280;4077;43.702;24.896;2023-03-16T09:17:21;99189.16;;;4.89;100.00
8069;BME280;4077;43.702;24.896;2023-03-16T09:19:47;99185.28;;;5.04;100.00
8069;BME280;4077;43.702;24.896;2023-03-16T09:22:13;99199.16;;;5.12;100.00
8069;BME280;4077;43.702;24.896;2023-03-16T09:24:39;99202.38;;;5.05;100.00
8069;BME280;4077;43.702;24.896;2023-03-16T09:27:04;99195.50;;;5.02;100.00
8069;BME280;4077;43.702;24.896;2023-03-16T09:29:30;99203.28;;;5.07;100.00
8069;BME280;4077;43.702;24.896;2023-03-16T09:31:56;99216.06;;;5.37;100.00
8069;BME280;4077;43.702;24.896;2023-03-16T09:34:21;99217.59;;;5.30;100.00
8069;BME280;4077;43.702;24.896;2023-03-16T09:36:47;99226.19;;;5.32;100.00
8069;BME280;4077;43.702;24.896;2023-03-16T09:39:12;99208.50;;;5.41;100.00
8069;BME280;4077;43.702;24.896;2023-03-16T09:44:27;99232.88;;;5.59;100.00
8069;BME280;4077;43.702;24.896;2023-03-16T09:46:58;99239.59;;;5.55;100.00
8069;BME280;4077;43.702;24.896;2023-03-16T09:49:28;99242.16;;;5.55;100.00
8069;BME280;4077;43.702;24.896;2023-03-16T09:55:30;99239.06;;;5.35;100.00
8069;BME280;4077;43.702;24.896;2023-03-16T09:57:58;99244.25;;;5.38;100.00
8069;BME280;4077;43.702;24.896;2023-03-16T10:00:26;99245.56;;;5.24;100.00
8069;BME280;4077;43.702;24.896;2023-03-16T10:03:04;99242.09;;;5.22;100.00
8069;BME280;4077;43.702;24.896;2023-03-16T10:05:36;99240.91;;;5.11;100.00
8069;BME280;4077;43.702;24.896;2023-03-16T10:08:13;99237.75;;;5.19;100.00
8069;BME280;4077;43.702;24.896;2023-03-16T10:13:33;99246.69;;;5.34;100.00
8069;BME280;4077;43.702;24.896;2023-03-16T10:16:07;99242.31;;;5.30;100.00
8069;BME280;4077;43.702;24.896;2023-03-16T10:18:41;99248.16;;;5.26;100.00
8069;BME280;4077;43.702;24.896;2023-03-16T10:21:15;99248.00;;;5.49;100.00
8069;BME280;4077;43.702;24.896;2023-03-16T10:23:43;99252.34;;;5.54;100.00
8069;BME280;4077;43.702;24.896;2023-03-16T10:26:13;99248.31;;;5.30;100.00
8069;BME280;4077;43.702;24.896;2023-03-16T10:28:39;99250.75;;;5.27;100.00
8069;BME280;4077;43.702;24.896;2023-03-16T10:31:09;99241.63;;;5.35;100.00
8069;BME280;4077;43.702;24.896;2023-03-16T10:33:35;99255.38;;;5.39;100.00
8069;BME280;4077;43.702;24.896;2023-03-16T10:36:11;99211.66;;;5.31;100.00
8069;BME280;4077;43.702;24.896;2023-03-16T10:44:03;99244.31;;;5.71;100.00
8069;BME280;4077;43.702;24.896;2023-03-16T10:46:37;99259.66;;;5.70;100.00
8069;BME280;4077;43.702;24.896;2023-03-16T10:49:03;99259.47;;;5.64;100.00
8069;BME280;4077;43.702;24.896;2023-03-16T10:51:31;99262.25;;;5.71;100.00
8069;BME280;4077;43.702;24.896;2023-03-16T10:54:07;99257.22;;;5.76;100.00
8069;BME280;4077;43.702;24.896;2023-03-16T10:56:36;99249.97;;;5.60;100.00
8069;BME280;4077;43.702;24.896;2023-03-16T10:59:14;99258.59;;;5.93;100.00
8069;BME280;4077;43.702;24.896;2023-03-16T11:01:46;99268.00;;;5.94;100.00
8069;BME280;4077;43.702;24.896;2023-03-16T11:04:14;99264.16;;;5.79;100.00
8069;BME280;4077;43.702;24.896;2023-03-16T11:06:52;99261.63;;;5.80;100.00
8069;BME280;4077;43.702;24.896;2023-03-16T11:09:24;99262.66;;;5.87;100.00
8069;BME280;4077;43.702;24.896;2023-03-16T11:11:52;99264.19;;;5.80;100.00
8069;BME280;4077;43.702;24.896;2023-03-16T11:14:20;99257.88;;;5.99;100.00
8069;BME280;4077;43.702;24.896;2023-03-16T11:16:48;99260.66;;;6.08;100.00
8069;BME280;4077;43.702;24.896;2023-03-16T11:19:33;99252.53;;;6.24;100.00
8069;BME280;4077;43.702;24.896;2023-03-16T11:22:04;99263.81;;;6.31;100.00
8069;BME280;4077;43.702;24.896;2023-03-16T11:24:52;99264.81;;;6.38;100.00
8069;BME280;4077;43.702;24.896;2023-03-16T11:27:24;99262.88;;;6.27;100.00
8069;BME280;4077;43.702;24.896;2023-03-16T11:30:00;99271.31;;;6.23;100.00
8069;BME280;4077;43.702;24.896;2023-03-16T11:32:32;99256.41;;;6.09;100.00
8069;BME280;4077;43.702;24.896;2023-03-16T11:35:00;99268.16;;;6.00;100.00
8069;BME280;4077;43.702;24.896;2023-03-16T11:37:38;99266.91;;;6.18;100.00
8069;BME280;4077;43.702;24.896;2023-03-16T11:46:28;99272.41;;;6.33;100.00
8069;BME280;4077;43.702;24.896;2023-03-16T11:57:16;99281.97;;;6.06;100.00
8069;BME280;4077;43.702;24.896;2023-03-16T11:59:52;99279.31;;;6.02;100.00
8069;BME280;4077;43.702;24.896;2023-03-16T12:11:11;99271.13;;;5.84;100.00
8069;BME280;4077;43.702;24.896;2023-03-16T12:18:50;99284.50;;;6.04;100.00
8069;BME280;4077;43.702;24.896;2023-03-16T12:21:22;99285.41;;;6.06;100.00
8069;BME280;4077;43.702;24.896;2023-03-16T12:23:53;99297.69;;;6.19;100.00
8069;BME280;4077;43.702;24.896;2023-03-16T12:26:23;99288.03;;;6.09;100.00
8069;BME280;4077;43.702;24.896;2023-03-16T12:28:53;99292.44;;;6.15;100.00
8069;BME280;4077;43.702;24.896;2023-03-16T12:45:44;99305.63;;;6.28;100.00
8069;BME280;4077;43.702;24.896;2023-03-16T12:48:46;99298.78;;;6.29;100.00
8069;BME280;4077;43.702;24.896;2023-03-16T12:51:11;99315.00;;;6.28;100.00
8069;BME280;4077;43.702;24.896;2023-03-16T12:53:52;99313.59;;;6.39;100.00
8069;BME280;4077;43.702;24.896;2023-03-16T12:56:27;99320.19;;;6.31;100.00
8069;BME280;4077;43.702;24.896;2023-03-16T12:58:56;99296.16;;;6.26;100.00
8069;BME280;4077;43.702;24.896;2023-03-16T13:01:30;99317.03;;;6.41;100.00
8069;BME280;4077;43.702;24.896;2023-03-16T13:04:15;99315.22;;;6.37;100.00
8069;BME280;4077;43.702;24.896;2023-03-16T13:06:50;99317.03;;;6.41;100.00
8069;BME280;4077;43.702;24.896;2023-03-16T13:09:27;99315.38;;;6.43;100.00
8069;BME280;4077;43.702;24.896;2023-03-16T13:11:56;99324.41;;;6.29;100.00
8069;BME280;4077;43.702;24.896;2023-03-16T13:14:35;99328.03;;;6.37;100.00
8069;BME280;4077;43.702;24.896;2023-03-16T13:19:40;99333.28;;;6.42;100.00
8069;BME280;4077;43.702;24.896;2023-03-16T13:22:25;99305.97;;;6.42;100.00
8069;BME280;4077;43.702;24.896;2023-03-16T13:25:12;99339.78;;;6.62;100.00
8069;BME280;4077;43.702;24.896;2023-03-16T13:27:38;99336.16;;;6.54;100.00
8069;BME280;4077;43.702;24.896;2023-03-16T13:30:28;99351.97;;;6.71;100.00
8069;BME280;4077;43.702;24.896;2023-03-16T13:32:59;99347.47;;;6.62;100.00
8069;BME280;4077;43.702;24.896;2023-03-16T13:35:27;99359.16;;;6.85;100.00
8069;BME280;4077;43.702;24.896;2023-03-16T13:37:53;99360.25;;;6.95;100.00
8069;BME280;4077;43.702;24.896;2023-03-16T13:40:24;99360.63;;;7.12;100.00
8069;BME280;4077;43.702;24.896;2023-03-16T13:42:51;99361.47;;;7.11;100.00
8069;BME280;4077;43.702;24.896;2023-03-16T13:45:21;99362.66;;;7.25;100.00
8069;BME280;4077;43.702;24.896;2023-03-16T13:47:47;99362.88;;;7.34;100.00
8069;BME280;4077;43.702;24.896;2023-03-16T13:50:14;99366.38;;;7.38;100.00
8069;BME280;4077;43.702;24.896;2023-03-16T13:52:41;99363.78;;;7.36;100.00
8069;BME280;4077;43.702;24.896;2023-03-16T13:55:15;99365.38;;;7.33;100.00
8069;BME280;4077;43.702;24.896;2023-03-16T13:57:42;99371.38;;;7.32;100.00
8069;BME280;4077;43.702;24.896;2023-03-16T14:00:19;99377.63;;;7.43;100.00
8069;BME280;4077;43.702;24.896;2023-03-16T14:02:50;99372.47;;;7.42;100.00
8069;BME280;4077;43.702;24.896;2023-03-16T14:05:34;99379.47;;;7.49;100.00
8069;BME280;4077;43.702;24.896;2023-03-16T14:08:01;99383.50;;;7.39;100.00
8069;BME280;4077;43.702;24.896;2023-03-16T14:10:37;99377.66;;;7.45;100.00
8069;BME280;4077;43.702;24.896;2023-03-16T14:13:20;99383.84;;;7.54;100.00
8069;BME280;4077;43.702;24.896;2023-03-16T14:15:46;99391.22;;;7.39;100.00
8069;BME280;4077;43.702;24.896;2023-03-16T14:19:07;99381.59;;;7.30;100.00
8069;BME280;4077;43.702;24.896;2023-03-16T14:21:43;99384.09;;;7.27;100.00
8069;BME280;4077;43.702;24.896;2023-03-16T14:24:29;99389.63;;;7.44;100.00